Osage River (Missouri), Bagnell (06926000)

StateMissouriLatestUnknown (1330 cfs)
RiverOsage RiverRatingObservedEstimated
Updated2020-07-13 14:15 (1 hour ago)Flood - The river is flooding. Obstacles can be treacherous or deadly. The river should be avoided at this stage for casual trips and definitely for the inexperienced. Trips should be attempted only with protective gear and equipment.Flood(none)(none)
Discharge1330 cfs (median: 6180 cfs)High - The river is high and potentially dangerous, especially for the young and / or inexperienced. Normal stream obstacles are sometimes difficult to navigate. Extended distances can be attempted, but canoe travel may not be advisable.High(none)(none)
Height1.83 feetGood - Conditions are ideal for a canoe or kayak. Boats typically will drag on fewer than one-quarter of riffles, if at all, and portages are unnecessary or rare. Normal float lengths can be attempted without a problem.Good(none)(none)
TrendFalling (falling over 24 hours)Low - River is low but can still be floated. Some riffles are okay but most come with significant dragging and might need a portage. Float lengths should be reduced to accommodate low flow, dragging, and portages.Low(none)(none)
USGSExternal icon USGS Site (External icon Google Maps)Poor - River is too low to float comfortably. Most or all riffles will drag or must be portaged and some obstacles (such as slick shelf rock) cause undue problems. Avoid the river at this stage for casual paddling trips.Poor(none)(none)

Trending Data

Plot Image

Trips for Osage River (Missouri), Bagnell (06926000)

DateStartEndDistanceConditionDischargeHeightFishingDetails

A total of 0 rows are displayed.

Condition Descriptions

Fishing Conditions

Fish Species

Notes

Classic Trip List

The classic River Trips application is still available for use. It is updated with the new system using a data retrofit. It is no longer maintained. The original River Trips application is no longer updated (as of 1 Dec 2016) but can be checked for errors or for the condition of the data before it was converted to the new system.

Gauge Data Table

ObservationHeightDischargeMaximum
Discharge
Minimum
Discharge
Mean
Discharge
P05P10P20P25P50
(Median)
P75P80P90P95
2020-07-13 14:15 1.83 1330 119000 (1951) 373 (1972) 11600 483 537 1050 1360 6180 13600 20500 29900 48800
2020-07-13 13:15 1.88 1380 119000 (1951) 373 (1972) 11600 483 537 1050 1360 6180 13600 20500 29900 48800
2020-07-13 12:15 1.82 1320 119000 (1951) 373 (1972) 11600 483 537 1050 1360 6180 13600 20500 29900 48800
2020-07-13 11:15 1.84 1340 119000 (1951) 373 (1972) 11600 483 537 1050 1360 6180 13600 20500 29900 48800
2020-07-13 10:15 1.86 1360 119000 (1951) 373 (1972) 11600 483 537 1050 1360 6180 13600 20500 29900 48800
2020-07-13 09:15 1.83 1330 119000 (1951) 373 (1972) 11600 483 537 1050 1360 6180 13600 20500 29900 48800
2020-07-13 08:15 1.92 1420 119000 (1951) 373 (1972) 11600 483 537 1050 1360 6180 13600 20500 29900 48800
2020-07-13 07:15 1.94 1440 119000 (1951) 373 (1972) 11600 483 537 1050 1360 6180 13600 20500 29900 48800
2020-07-13 06:15 1.96 1460 119000 (1951) 373 (1972) 11600 483 537 1050 1360 6180 13600 20500 29900 48800
2020-07-13 05:15 1.96 1460 119000 (1951) 373 (1972) 11600 483 537 1050 1360 6180 13600 20500 29900 48800
2020-07-13 04:15 1.98 1490 119000 (1951) 373 (1972) 11600 483 537 1050 1360 6180 13600 20500 29900 48800
2020-07-13 03:15 1.97 1470 119000 (1951) 373 (1972) 11600 483 537 1050 1360 6180 13600 20500 29900 48800
2020-07-13 02:15 1.94 1440 119000 (1951) 373 (1972) 11600 483 537 1050 1360 6180 13600 20500 29900 48800
2020-07-13 01:15 2.04 1550 119000 (1951) 373 (1972) 11600 483 537 1050 1360 6180 13600 20500 29900 48800
2020-07-13 00:15 2.06 1570 119000 (1951) 373 (1972) 11600 483 537 1050 1360 6180 13600 20500 29900 48800
2020-07-12 23:15 2.11 1620 117000 (1951) 376 (1975) 11300 449 634 908 1120 4160 16200 19800 33900 48600
2020-07-12 22:15 2.12 1630 117000 (1951) 376 (1975) 11300 449 634 908 1120 4160 16200 19800 33900 48600
2020-07-12 21:15 2.24 1760 117000 (1951) 376 (1975) 11300 449 634 908 1120 4160 16200 19800 33900 48600
2020-07-12 20:15 2.34 1870 117000 (1951) 376 (1975) 11300 449 634 908 1120 4160 16200 19800 33900 48600
2020-07-12 19:15 2.49 2040 117000 (1951) 376 (1975) 11300 449 634 908 1120 4160 16200 19800 33900 48600
2020-07-12 18:15 2.90 2520 117000 (1951) 376 (1975) 11300 449 634 908 1120 4160 16200 19800 33900 48600
2020-07-12 17:15 2.32 1850 117000 (1951) 376 (1975) 11300 449 634 908 1120 4160 16200 19800 33900 48600
2020-07-12 16:15 2.55 2100 117000 (1951) 376 (1975) 11300 449 634 908 1120 4160 16200 19800 33900 48600
2020-07-12 15:15 2.09 1600 117000 (1951) 376 (1975) 11300 449 634 908 1120 4160 16200 19800 33900 48600
2020-07-12 14:15 2.05 1560 117000 (1951) 376 (1975) 11300 449 634 908 1120 4160 16200 19800 33900 48600
2020-07-12 13:15 2.10 1610 117000 (1951) 376 (1975) 11300 449 634 908 1120 4160 16200 19800 33900 48600
2020-07-12 12:15 2.06 1570 117000 (1951) 376 (1975) 11300 449 634 908 1120 4160 16200 19800 33900 48600
2020-07-12 11:15 2.03 1540 117000 (1951) 376 (1975) 11300 449 634 908 1120 4160 16200 19800 33900 48600
2020-07-12 10:15 2.02 1530 117000 (1951) 376 (1975) 11300 449 634 908 1120 4160 16200 19800 33900 48600
2020-07-12 09:15 2.00 1510 117000 (1951) 376 (1975) 11300 449 634 908 1120 4160 16200 19800 33900 48600
2020-07-12 08:15 1.96 1460 117000 (1951) 376 (1975) 11300 449 634 908 1120 4160 16200 19800 33900 48600
2020-07-12 07:15 1.95 1450 117000 (1951) 376 (1975) 11300 449 634 908 1120 4160 16200 19800 33900 48600
2020-07-12 06:15 1.90 1400 117000 (1951) 376 (1975) 11300 449 634 908 1120 4160 16200 19800 33900 48600
2020-07-12 05:15 1.95 1450 117000 (1951) 376 (1975) 11300 449 634 908 1120 4160 16200 19800 33900 48600
2020-07-12 04:15 1.90 1400 117000 (1951) 376 (1975) 11300 449 634 908 1120 4160 16200 19800 33900 48600
2020-07-12 03:15 2.01 1520 117000 (1951) 376 (1975) 11300 449 634 908 1120 4160 16200 19800 33900 48600
2020-07-12 02:15 2.04 1550 117000 (1951) 376 (1975) 11300 449 634 908 1120 4160 16200 19800 33900 48600
2020-07-12 01:15 2.10 1610 117000 (1951) 376 (1975) 11300 449 634 908 1120 4160 16200 19800 33900 48600
2020-07-12 00:15 2.19 1700 117000 (1951) 376 (1975) 11300 449 634 908 1120 4160 16200 19800 33900 48600
2020-07-11 23:15 2.33 1860 118000 (1951) 360 (1959) 11500 473 612 1140 1600 5820 16400 18700 33600 43000
2020-07-11 22:15 1.90 1400 118000 (1951) 360 (1959) 11500 473 612 1140 1600 5820 16400 18700 33600 43000
2020-07-11 21:15 1.93 1430 118000 (1951) 360 (1959) 11500 473 612 1140 1600 5820 16400 18700 33600 43000
2020-07-11 20:15 1.87 1370 118000 (1951) 360 (1959) 11500 473 612 1140 1600 5820 16400 18700 33600 43000
2020-07-11 19:15 1.90 1400 118000 (1951) 360 (1959) 11500 473 612 1140 1600 5820 16400 18700 33600 43000
2020-07-11 18:15 1.91 1410 118000 (1951) 360 (1959) 11500 473 612 1140 1600 5820 16400 18700 33600 43000
2020-07-11 17:15 1.92 1420 118000 (1951) 360 (1959) 11500 473 612 1140 1600 5820 16400 18700 33600 43000
2020-07-11 16:15 1.94 1440 118000 (1951) 360 (1959) 11500 473 612 1140 1600 5820 16400 18700 33600 43000
2020-07-11 15:15 1.91 1410 118000 (1951) 360 (1959) 11500 473 612 1140 1600 5820 16400 18700 33600 43000
2020-07-11 14:15 1.82 1320 118000 (1951) 360 (1959) 11500 473 612 1140 1600 5820 16400 18700 33600 43000
2020-07-11 13:15 1.82 1320 118000 (1951) 360 (1959) 11500 473 612 1140 1600 5820 16400 18700 33600 43000
2020-07-11 12:15 1.84 1340 118000 (1951) 360 (1959) 11500 473 612 1140 1600 5820 16400 18700 33600 43000
2020-07-11 11:15 1.87 1370 118000 (1951) 360 (1959) 11500 473 612 1140 1600 5820 16400 18700 33600 43000
2020-07-11 10:15 1.93 1430 118000 (1951) 360 (1959) 11500 473 612 1140 1600 5820 16400 18700 33600 43000
2020-07-11 09:15 1.94 1440 118000 (1951) 360 (1959) 11500 473 612 1140 1600 5820 16400 18700 33600 43000
2020-07-11 08:15 1.96 1460 118000 (1951) 360 (1959) 11500 473 612 1140 1600 5820 16400 18700 33600 43000
2020-07-11 07:15 2.00 1510 118000 (1951) 360 (1959) 11500 473 612 1140 1600 5820 16400 18700 33600 43000
2020-07-11 06:15 2.03 1540 118000 (1951) 360 (1959) 11500 473 612 1140 1600 5820 16400 18700 33600 43000
2020-07-11 05:15 2.09 1600 118000 (1951) 360 (1959) 11500 473 612 1140 1600 5820 16400 18700 33600 43000
2020-07-11 04:15 2.14 1650 118000 (1951) 360 (1959) 11500 473 612 1140 1600 5820 16400 18700 33600 43000
2020-07-11 03:15 2.22 1740 118000 (1951) 360 (1959) 11500 473 612 1140 1600 5820 16400 18700 33600 43000
2020-07-11 02:15 2.33 1860 118000 (1951) 360 (1959) 11500 473 612 1140 1600 5820 16400 18700 33600 43000
2020-07-11 01:15 2.44 1980 118000 (1951) 360 (1959) 11500 473 612 1140 1600 5820 16400 18700 33600 43000
2020-07-11 00:15 2.72 2300 118000 (1951) 360 (1959) 11500 473 612 1140 1600 5820 16400 18700 33600 43000
2020-07-10 23:15 3.02 2670 119000 (1951) 311 (1972) 11400 413 529 923 1190 5380 14800 17200 32000 44100
2020-07-10 22:15 4.15 4220 119000 (1951) 311 (1972) 11400 413 529 923 1190 5380 14800 17200 32000 44100
2020-07-10 21:15 2.03 1540 119000 (1951) 311 (1972) 11400 413 529 923 1190 5380 14800 17200 32000 44100
2020-07-10 20:15 2.04 1550 119000 (1951) 311 (1972) 11400 413 529 923 1190 5380 14800 17200 32000 44100
2020-07-10 19:15 2.06 1570 119000 (1951) 311 (1972) 11400 413 529 923 1190 5380 14800 17200 32000 44100
2020-07-10 18:15 2.08 1590 119000 (1951) 311 (1972) 11400 413 529 923 1190 5380 14800 17200 32000 44100
2020-07-10 17:15 2.09 1600 119000 (1951) 311 (1972) 11400 413 529 923 1190 5380 14800 17200 32000 44100
2020-07-10 16:15 2.09 1600 119000 (1951) 311 (1972) 11400 413 529 923 1190 5380 14800 17200 32000 44100
2020-07-10 15:15 2.17 1680 119000 (1951) 311 (1972) 11400 413 529 923 1190 5380 14800 17200 32000 44100
2020-07-10 14:15 2.24 1760 119000 (1951) 311 (1972) 11400 413 529 923 1190 5380 14800 17200 32000 44100
2020-07-10 13:15 2.23 1750 119000 (1951) 311 (1972) 11400 413 529 923 1190 5380 14800 17200 32000 44100
2020-07-10 12:15 2.36 1890 119000 (1951) 311 (1972) 11400 413 529 923 1190 5380 14800 17200 32000 44100
2020-07-10 11:15 2.47 2010 119000 (1951) 311 (1972) 11400 413 529 923 1190 5380 14800 17200 32000 44100
2020-07-10 10:15 2.57 2130 119000 (1951) 311 (1972) 11400 413 529 923 1190 5380 14800 17200 32000 44100
2020-07-10 09:15 2.75 2340 119000 (1951) 311 (1972) 11400 413 529 923 1190 5380 14800 17200 32000 44100
2020-07-10 08:15 2.94 2570 119000 (1951) 311 (1972) 11400 413 529 923 1190 5380 14800 17200 32000 44100
2020-07-10 07:15 3.21 2910 119000 (1951) 311 (1972) 11400 413 529 923 1190 5380 14800 17200 32000 44100
2020-07-10 06:15 3.49 3270 119000 (1951) 311 (1972) 11400 413 529 923 1190 5380 14800 17200 32000 44100
2020-07-10 05:15 3.79 3680 119000 (1951) 311 (1972) 11400 413 529 923 1190 5380 14800 17200 32000 44100
2020-07-10 04:15 4.27 4410 119000 (1951) 311 (1972) 11400 413 529 923 1190 5380 14800 17200 32000 44100
2020-07-10 03:15 4.85 5370 119000 (1951) 311 (1972) 11400 413 529 923 1190 5380 14800 17200 32000 44100
2020-07-10 02:15 5.58 6670 119000 (1951) 311 (1972) 11400 413 529 923 1190 5380 14800 17200 32000 44100
2020-07-10 01:15 6.52 8500 119000 (1951) 311 (1972) 11400 413 529 923 1190 5380 14800 17200 32000 44100
2020-07-10 00:15 7.76 11200 119000 (1951) 311 (1972) 11400 413 529 923 1190 5380 14800 17200 32000 44100
2020-07-09 23:15 9.62 15700 122000 (1951) 320 (1961) 12100 401 517 756 919 5720 14800 18000 33900 45600
2020-07-09 22:15 13.08 25300 122000 (1951) 320 (1961) 12100 401 517 756 919 5720 14800 18000 33900 45600
2020-07-09 21:15 13.74 27300 122000 (1951) 320 (1961) 12100 401 517 756 919 5720 14800 18000 33900 45600
2020-07-09 20:15 12.68 24100 122000 (1951) 320 (1961) 12100 401 517 756 919 5720 14800 18000 33900 45600
2020-07-09 19:15 10.58 18200 122000 (1951) 320 (1961) 12100 401 517 756 919 5720 14800 18000 33900 45600
2020-07-09 18:15 4.85 5370 122000 (1951) 320 (1961) 12100 401 517 756 919 5720 14800 18000 33900 45600
2020-07-09 17:15 2.28 1800 122000 (1951) 320 (1961) 12100 401 517 756 919 5720 14800 18000 33900 45600
2020-07-09 16:15 2.38 1910 122000 (1951) 320 (1961) 12100 401 517 756 919 5720 14800 18000 33900 45600
2020-07-09 15:15 2.48 2020 122000 (1951) 320 (1961) 12100 401 517 756 919 5720 14800 18000 33900 45600
2020-07-09 14:15 2.64 2210 122000 (1951) 320 (1961) 12100 401 517 756 919 5720 14800 18000 33900 45600
2020-07-09 13:15 2.84 2450 122000 (1951) 320 (1961) 12100 401 517 756 919 5720 14800 18000 33900 45600
2020-07-09 12:15 3.17 2850 122000 (1951) 320 (1961) 12100 401 517 756 919 5720 14800 18000 33900 45600
2020-07-09 11:15 2.91 2530 122000 (1951) 320 (1961) 12100 401 517 756 919 5720 14800 18000 33900 45600
2020-07-09 10:15 3.23 2930 122000 (1951) 320 (1961) 12100 401 517 756 919 5720 14800 18000 33900 45600
2020-07-09 09:15 3.48 3260 122000 (1951) 320 (1961) 12100 401 517 756 919 5720 14800 18000 33900 45600
2020-07-09 08:15 3.92 3870 122000 (1951) 320 (1961) 12100 401 517 756 919 5720 14800 18000 33900 45600
2020-07-09 07:15 4.34 4520 122000 (1951) 320 (1961) 12100 401 517 756 919 5720 14800 18000 33900 45600
2020-07-09 06:15 5.03 5680 122000 (1951) 320 (1961) 12100 401 517 756 919 5720 14800 18000 33900 45600
2020-07-09 05:15 5.93 7330 122000 (1951) 320 (1961) 12100 401 517 756 919 5720 14800 18000 33900 45600
2020-07-09 04:15 6.01 7490 122000 (1951) 320 (1961) 12100 401 517 756 919 5720 14800 18000 33900 45600
2020-07-09 03:15 5.78 7050 122000 (1951) 320 (1961) 12100 401 517 756 919 5720 14800 18000 33900 45600
2020-07-09 02:15 6.70 8870 122000 (1951) 320 (1961) 12100 401 517 756 919 5720 14800 18000 33900 45600
2020-07-09 01:15 7.96 11600 122000 (1951) 320 (1961) 12100 401 517 756 919 5720 14800 18000 33900 45600
2020-07-09 00:15 9.70 15900 122000 (1951) 320 (1961) 12100 401 517 756 919 5720 14800 18000 33900 45600
2020-07-08 23:15 12.97 25000 125000 (1951) 388 (1972) 13400 417 533 754 945 7520 17200 22500 36000 48000
2020-07-08 22:15 14.24 28900 125000 (1951) 388 (1972) 13400 417 533 754 945 7520 17200 22500 36000 48000
2020-07-08 21:15 13.40 26300 125000 (1951) 388 (1972) 13400 417 533 754 945 7520 17200 22500 36000 48000
2020-07-08 20:15 12.07 22300 125000 (1951) 388 (1972) 13400 417 533 754 945 7520 17200 22500 36000 48000
2020-07-08 19:15 8.65 13200 125000 (1951) 388 (1972) 13400 417 533 754 945 7520 17200 22500 36000 48000
2020-07-08 18:15 2.45 1990 125000 (1951) 388 (1972) 13400 417 533 754 945 7520 17200 22500 36000 48000
2020-07-08 17:15 2.56 2120 125000 (1951) 388 (1972) 13400 417 533 754 945 7520 17200 22500 36000 48000
2020-07-08 16:15 2.75 2340 125000 (1951) 388 (1972) 13400 417 533 754 945 7520 17200 22500 36000 48000
2020-07-08 15:15 3.08 2740 125000 (1951) 388 (1972) 13400 417 533 754 945 7520 17200 22500 36000 48000
2020-07-08 14:15 2.18 1690 125000 (1951) 388 (1972) 13400 417 533 754 945 7520 17200 22500 36000 48000
2020-07-08 13:15 2.26 1780 125000 (1951) 388 (1972) 13400 417 533 754 945 7520 17200 22500 36000 48000
2020-07-08 12:15 2.36 1890 125000 (1951) 388 (1972) 13400 417 533 754 945 7520 17200 22500 36000 48000
2020-07-08 11:15 2.44 1980 125000 (1951) 388 (1972) 13400 417 533 754 945 7520 17200 22500 36000 48000
2020-07-08 10:15 2.48 2020 125000 (1951) 388 (1972) 13400 417 533 754 945 7520 17200 22500 36000 48000
2020-07-08 09:15 2.59 2150 125000 (1951) 388 (1972) 13400 417 533 754 945 7520 17200 22500 36000 48000
2020-07-08 08:15 2.71 2290 125000 (1951) 388 (1972) 13400 417 533 754 945 7520 17200 22500 36000 48000
2020-07-08 07:15 2.88 2490 125000 (1951) 388 (1972) 13400 417 533 754 945 7520 17200 22500 36000 48000
2020-07-08 06:15 3.08 2740 125000 (1951) 388 (1972) 13400 417 533 754 945 7520 17200 22500 36000 48000
2020-07-08 05:15 3.33 3060 125000 (1951) 388 (1972) 13400 417 533 754 945 7520 17200 22500 36000 48000
2020-07-08 04:15 3.65 3490 125000 (1951) 388 (1972) 13400 417 533 754 945 7520 17200 22500 36000 48000
2020-07-08 03:15 4.03 4040 125000 (1951) 388 (1972) 13400 417 533 754 945 7520 17200 22500 36000 48000
2020-07-08 02:15 4.48 4750 125000 (1951) 388 (1972) 13400 417 533 754 945 7520 17200 22500 36000 48000
2020-07-08 01:15 5.26 6090 125000 (1951) 388 (1972) 13400 417 533 754 945 7520 17200 22500 36000 48000
2020-07-08 00:15 5.96 7390 125000 (1951) 388 (1972) 13400 417 533 754 945 7520 17200 22500 36000 48000
2020-07-07 23:15 6.04 7550 125000 (1951) 310 (1968) 13200 416 556 725 866 6970 20200 23900 34700 48300
2020-07-07 22:15 6.18 7820 125000 (1951) 310 (1968) 13200 416 556 725 866 6970 20200 23900 34700 48300
2020-07-07 21:15 7.25 10000 125000 (1951) 310 (1968) 13200 416 556 725 866 6970 20200 23900 34700 48300
2020-07-07 20:15 8.73 13400 125000 (1951) 310 (1968) 13200 416 556 725 866 6970 20200 23900 34700 48300
2020-07-07 19:15 11.24 20000 125000 (1951) 310 (1968) 13200 416 556 725 866 6970 20200 23900 34700 48300
2020-07-07 18:15 13.52 26600 125000 (1951) 310 (1968) 13200 416 556 725 866 6970 20200 23900 34700 48300
2020-07-07 17:15 13.29 25900 125000 (1951) 310 (1968) 13200 416 556 725 866 6970 20200 23900 34700 48300
2020-07-07 16:15 11.62 21000 125000 (1951) 310 (1968) 13200 416 556 725 866 6970 20200 23900 34700 48300
2020-07-07 15:15 8.75 13500 125000 (1951) 310 (1968) 13200 416 556 725 866 6970 20200 23900 34700 48300
2020-07-07 14:15 5.93 7330 125000 (1951) 310 (1968) 13200 416 556 725 866 6970 20200 23900 34700 48300
2020-07-07 13:15 4.03 4040 125000 (1951) 310 (1968) 13200 416 556 725 866 6970 20200 23900 34700 48300
2020-07-07 12:15 3.13 2800 125000 (1951) 310 (1968) 13200 416 556 725 866 6970 20200 23900 34700 48300
2020-07-07 11:15 3.31 3030 125000 (1951) 310 (1968) 13200 416 556 725 866 6970 20200 23900 34700 48300
2020-07-07 10:15 3.60 3420 125000 (1951) 310 (1968) 13200 416 556 725 866 6970 20200 23900 34700 48300
2020-07-07 09:15 3.95 3920 125000 (1951) 310 (1968) 13200 416 556 725 866 6970 20200 23900 34700 48300
2020-07-07 08:15 4.39 4610 125000 (1951) 310 (1968) 13200 416 556 725 866 6970 20200 23900 34700 48300
2020-07-07 07:15 4.99 5610 125000 (1951) 310 (1968) 13200 416 556 725 866 6970 20200 23900 34700 48300
2020-07-07 06:15 6.08 7630 125000 (1951) 310 (1968) 13200 416 556 725 866 6970 20200 23900 34700 48300
2020-07-07 05:15 6.17 7800 125000 (1951) 310 (1968) 13200 416 556 725 866 6970 20200 23900 34700 48300
2020-07-07 04:15 6.01 7490 125000 (1951) 310 (1968) 13200 416 556 725 866 6970 20200 23900 34700 48300
2020-07-07 03:15 6.55 8560 125000 (1951) 310 (1968) 13200 416 556 725 866 6970 20200 23900 34700 48300
2020-07-07 02:15 7.56 10700 125000 (1951) 310 (1968) 13200 416 556 725 866 6970 20200 23900 34700 48300
2020-07-07 01:15 8.91 13900 125000 (1951) 310 (1968) 13200 416 556 725 866 6970 20200 23900 34700 48300
2020-07-07 00:15 10.79 18700 125000 (1951) 310 (1968) 13200 416 556 725 866 6970 20200 23900 34700 48300
2020-07-06 23:15 14.29 29000 116000 (1951) 347 (1931) 12800 424 488 760 949 4140 18800 28000 36400 49600
2020-07-06 22:15 15.86 34200 116000 (1951) 347 (1931) 12800 424 488 760 949 4140 18800 28000 36400 49600
2020-07-06 21:15 15.63 33400 116000 (1951) 347 (1931) 12800 424 488 760 949 4140 18800 28000 36400 49600
2020-07-06 20:15 15.20 32000 116000 (1951) 347 (1931) 12800 424 488 760 949 4140 18800 28000 36400 49600
2020-07-06 19:15 14.54 29900 116000 (1951) 347 (1931) 12800 424 488 760 949 4140 18800 28000 36400 49600
2020-07-06 18:15 14.95 31200 116000 (1951) 347 (1931) 12800 424 488 760 949 4140 18800 28000 36400 49600
2020-07-06 17:15 14.80 30700 116000 (1951) 347 (1931) 12800 424 488 760 949 4140 18800 28000 36400 49600
2020-07-06 16:15 14.07 28400 116000 (1951) 347 (1931) 12800 424 488 760 949 4140 18800 28000 36400 49600
2020-07-06 15:15 12.88 24700 116000 (1951) 347 (1931) 12800 424 488 760 949 4140 18800 28000 36400 49600
2020-07-06 14:15 11.31 20100 116000 (1951) 347 (1931) 12800 424 488 760 949 4140 18800 28000 36400 49600
2020-07-06 13:15 7.77 11200 116000 (1951) 347 (1931) 12800 424 488 760 949 4140 18800 28000 36400 49600
2020-07-06 12:15 4.82 5320 116000 (1951) 347 (1931) 12800 424 488 760 949 4140 18800 28000 36400 49600
2020-07-06 11:15 2.60 2160 116000 (1951) 347 (1931) 12800 424 488 760 949 4140 18800 28000 36400 49600
2020-07-06 10:15 2.06 1570 116000 (1951) 347 (1931) 12800 424 488 760 949 4140 18800 28000 36400 49600
2020-07-06 09:15 2.06 1570 116000 (1951) 347 (1931) 12800 424 488 760 949 4140 18800 28000 36400 49600
2020-07-06 08:15 2.07 1580 116000 (1951) 347 (1931) 12800 424 488 760 949 4140 18800 28000 36400 49600
2020-07-06 07:15 2.09 1600 116000 (1951) 347 (1931) 12800 424 488 760 949 4140 18800 28000 36400 49600
2020-07-06 06:15 2.10 1610 116000 (1951) 347 (1931) 12800 424 488 760 949 4140 18800 28000 36400 49600
2020-07-06 05:15 2.11 1620 116000 (1951) 347 (1931) 12800 424 488 760 949 4140 18800 28000 36400 49600
2020-07-06 04:15 2.05 1560 116000 (1951) 347 (1931) 12800 424 488 760 949 4140 18800 28000 36400 49600
2020-07-06 03:15 2.13 1640 116000 (1951) 347 (1931) 12800 424 488 760 949 4140 18800 28000 36400 49600
2020-07-06 02:15 2.15 1660 116000 (1951) 347 (1931) 12800 424 488 760 949 4140 18800 28000 36400 49600
2020-07-06 01:15 2.16 1670 116000 (1951) 347 (1931) 12800 424 488 760 949 4140 18800 28000 36400 49600
2020-07-06 00:15 2.17 1680 116000 (1951) 347 (1931) 12800 424 488 760 949 4140 18800 28000 36400 49600

A total of 183 rows are displayed for years 1931 through 2018.